Terminal Aerodrome Forecast
Issued by NWS

Home | Current Version | Previous Version | Text Only | Print | Product List | Glossary On
Versions: 1 2 3 4 5 6 7 8 9 10 11 12 13 14 15 16 17 18 19 20 21 22 23 24 25 26 27
000
FTUS43 KGRR 110328 AAB
TAFJXN
TAF AMD
KJXN 110328Z 1103/1124 27007KT P6SM BKN040
     FM111300 18006KT 6SM -SN OVC035
     FM111600 18008KT 2SM -SN OVC018
     FM112200 20007KT 3/4SM -SN OVC010=

USA.gov is the U.S. government's official web portal to all federal, state and local government web resources and services.